sensor_id;sensor_type;location;lat;lon;timestamp;pressure;altitude;pressure_sealevel;temperature;humidity
16030;BME280;34770;49.272;11.070;2023-11-21T00:02:25;97180.06;;;7.67;100.00
16030;BME280;34770;49.272;11.070;2023-11-21T00:04:50;97162.84;;;7.58;100.00
16030;BME280;34770;49.272;11.070;2023-11-21T00:07:16;97172.25;;;7.64;100.00
16030;BME280;34770;49.272;11.070;2023-11-21T00:09:41;97155.44;;;7.50;100.00
16030;BME280;34770;49.272;11.070;2023-11-21T00:12:08;97148.75;;;7.45;100.00
16030;BME280;34770;49.272;11.070;2023-11-21T00:14:37;97149.28;;;7.39;100.00
16030;BME280;34770;49.272;11.070;2023-11-21T00:17:03;97179.31;;;7.55;100.00
16030;BME280;34770;49.272;11.070;2023-11-21T00:19:28;97169.19;;;7.47;100.00
16030;BME280;34770;49.272;11.070;2023-11-21T00:21:54;97165.78;;;7.45;100.00
16030;BME280;34770;49.272;11.070;2023-11-21T00:24:19;97138.97;;;7.23;100.00
16030;BME280;34770;49.272;11.070;2023-11-21T00:26:45;97162.38;;;7.43;100.00
16030;BME280;34770;49.272;11.070;2023-11-21T00:29:10;97155.06;;;7.34;100.00
16030;BME280;34770;49.272;11.070;2023-11-21T00:31:36;97151.50;;;7.34;100.00
16030;BME280;34770;49.272;11.070;2023-11-21T00:34:03;97158.44;;;7.27;100.00
16030;BME280;34770;49.272;11.070;2023-11-21T00:36:31;97113.22;;;7.10;100.00
16030;BME280;34770;49.272;11.070;2023-11-21T00:38:57;97141.25;;;7.28;100.00
16030;BME280;34770;49.272;11.070;2023-11-21T00:41:23;97171.75;;;7.49;100.00
16030;BME280;34770;49.272;11.070;2023-11-21T00:43:48;97165.06;;;7.43;100.00
16030;BME280;34770;49.272;11.070;2023-11-21T00:46:13;97145.88;;;7.37;100.00
16030;BME280;34770;49.272;11.070;2023-11-21T00:48:39;97138.91;;;7.34;100.00
16030;BME280;34770;49.272;11.070;2023-11-21T00:51:04;97153.47;;;7.52;100.00
16030;BME280;34770;49.272;11.070;2023-11-21T00:53:31;97110.50;;;7.30;100.00
16030;BME280;34770;49.272;11.070;2023-11-21T00:55:57;97102.56;;;7.29;100.00
16030;BME280;34770;49.272;11.070;2023-11-21T00:58:26;97103.53;;;7.28;100.00
16030;BME280;34770;49.272;11.070;2023-11-21T01:00:52;97165.56;;;7.58;99.48
16030;BME280;34770;49.272;11.070;2023-11-21T01:03:18;97107.50;;;7.24;99.21
16030;BME280;34770;49.272;11.070;2023-11-21T01:05:43;97066.41;;;7.01;99.05
16030;BME280;34770;49.272;11.070;2023-11-21T01:08:09;97139.34;;;7.39;99.63
16030;BME280;34770;49.272;11.070;2023-11-21T01:10:34;97165.44;;;7.59;99.28
16030;BME280;34770;49.272;11.070;2023-11-21T01:13:00;97150.06;;;7.50;99.60
16030;BME280;34770;49.272;11.070;2023-11-21T01:15:25;97159.78;;;7.63;99.40
16030;BME280;34770;49.272;11.070;2023-11-21T01:17:51;97142.69;;;7.52;99.24
16030;BME280;34770;49.272;11.070;2023-11-21T01:20:17;97143.25;;;7.46;98.89
16030;BME280;34770;49.272;11.070;2023-11-21T01:22:42;97115.03;;;7.30;98.58
16030;BME280;34770;49.272;11.070;2023-11-21T01:25:08;97091.41;;;7.13;99.13
16030;BME280;34770;49.272;11.070;2023-11-21T01:27:34;97119.44;;;7.31;99.18
16030;BME280;34770;49.272;11.070;2023-11-21T01:30:00;97161.88;;;7.59;99.68
16030;BME280;34770;49.272;11.070;2023-11-21T01:32:25;97109.72;;;7.39;99.65
16030;BME280;34770;49.272;11.070;2023-11-21T01:34:50;97103.16;;;7.32;99.45
16030;BME280;34770;49.272;11.070;2023-11-21T01:37:16;97166.28;;;7.60;98.51
16030;BME280;34770;49.272;11.070;2023-11-21T01:39:43;97165.88;;;7.65;100.00
16030;BME280;34770;49.272;11.070;2023-11-21T01:42:10;97112.22;;;7.31;98.53
16030;BME280;34770;49.272;11.070;2023-11-21T01:44:38;97155.25;;;7.42;98.06
16030;BME280;34770;49.272;11.070;2023-11-21T01:47:05;97120.78;;;7.16;98.44
16030;BME280;34770;49.272;11.070;2023-11-21T01:49:35;97146.19;;;7.23;97.93
16030;BME280;34770;49.272;11.070;2023-11-21T01:52:01;97121.94;;;7.02;98.35
16030;BME280;34770;49.272;11.070;2023-11-21T01:54:27;97120.38;;;6.99;98.59
16030;BME280;34770;49.272;11.070;2023-11-21T01:56:57;97151.72;;;7.21;99.85
16030;BME280;34770;49.272;11.070;2023-11-21T01:59:25;97131.47;;;7.06;99.70
16030;BME280;34770;49.272;11.070;2023-11-21T02:01:51;97143.22;;;7.05;99.56
16030;BME280;34770;49.272;11.070;2023-11-21T02:04:17;97142.66;;;7.02;100.00
16030;BME280;34770;49.272;11.070;2023-11-21T02:06:43;97100.41;;;6.81;100.00
16030;BME280;34770;49.272;11.070;2023-11-21T02:09:08;97091.38;;;6.71;100.00
16030;BME280;34770;49.272;11.070;2023-11-21T02:11:34;97150.94;;;7.10;100.00
16030;BME280;34770;49.272;11.070;2023-11-21T02:14:00;97083.31;;;6.71;100.00
16030;BME280;34770;49.272;11.070;2023-11-21T02:16:26;97099.41;;;6.82;100.00
16030;BME280;34770;49.272;11.070;2023-11-21T02:18:52;97093.91;;;6.84;100.00
16030;BME280;34770;49.272;11.070;2023-11-21T02:21:17;97128.66;;;7.08;100.00
16030;BME280;34770;49.272;11.070;2023-11-21T02:23:44;97149.81;;;7.12;100.00
16030;BME280;34770;49.272;11.070;2023-11-21T02:26:12;97140.03;;;7.11;100.00
16030;BME280;34770;49.272;11.070;2023-11-21T02:28:37;97138.59;;;7.07;100.00
16030;BME280;34770;49.272;11.070;2023-11-21T02:31:04;97113.63;;;6.84;100.00
16030;BME280;34770;49.272;11.070;2023-11-21T02:33:30;97118.00;;;6.85;100.00
16030;BME280;34770;49.272;11.070;2023-11-21T02:35:59;97097.38;;;6.75;100.00
16030;BME280;34770;49.272;11.070;2023-11-21T02:38:24;97112.34;;;6.88;100.00
16030;BME280;34770;49.272;11.070;2023-11-21T02:40:50;97134.25;;;6.95;100.00
16030;BME280;34770;49.272;11.070;2023-11-21T02:43:16;97133.63;;;6.91;100.00
16030;BME280;34770;49.272;11.070;2023-11-21T02:45:41;97107.75;;;6.79;100.00
16030;BME280;34770;49.272;11.070;2023-11-21T02:48:07;97115.78;;;6.90;100.00
16030;BME280;34770;49.272;11.070;2023-11-21T02:50:32;97110.41;;;6.90;100.00
16030;BME280;34770;49.272;11.070;2023-11-21T02:52:58;97122.19;;;6.99;100.00
16030;BME280;34770;49.272;11.070;2023-11-21T02:55:26;97124.38;;;7.05;100.00
16030;BME280;34770;49.272;11.070;2023-11-21T02:57:51;97119.47;;;7.10;100.00
16030;BME280;34770;49.272;11.070;2023-11-21T03:00:17;97101.84;;;7.06;100.00
16030;BME280;34770;49.272;11.070;2023-11-21T03:02:43;97134.44;;;7.24;100.00
16030;BME280;34770;49.272;11.070;2023-11-21T03:05:09;97105.00;;;7.11;100.00
16030;BME280;34770;49.272;11.070;2023-11-21T03:07:36;97126.38;;;7.24;100.00
16030;BME280;34770;49.272;11.070;2023-11-21T03:10:02;97116.56;;;7.23;100.00
16030;BME280;34770;49.272;11.070;2023-11-21T03:12:29;97104.28;;;7.09;100.00
16030;BME280;34770;49.272;11.070;2023-11-21T03:14:55;97123.06;;;7.20;100.00
16030;BME280;34770;49.272;11.070;2023-11-21T03:17:20;97129.50;;;7.29;100.00
16030;BME280;34770;49.272;11.070;2023-11-21T03:19:46;97129.88;;;7.24;100.00
16030;BME280;34770;49.272;11.070;2023-11-21T03:22:11;97114.53;;;7.15;100.00
16030;BME280;34770;49.272;11.070;2023-11-21T03:24:37;97137.16;;;7.24;100.00
16030;BME280;34770;49.272;11.070;2023-11-21T03:27:03;97127.16;;;7.15;100.00
16030;BME280;34770;49.272;11.070;2023-11-21T03:29:29;97097.59;;;7.04;100.00
16030;BME280;34770;49.272;11.070;2023-11-21T03:31:54;97119.66;;;7.18;100.00
16030;BME280;34770;49.272;11.070;2023-11-21T03:34:24;97120.19;;;7.12;100.00
16030;BME280;34770;49.272;11.070;2023-11-21T03:36:51;97136.28;;;7.23;100.00
16030;BME280;34770;49.272;11.070;2023-11-21T03:39:16;97145.53;;;7.30;100.00
16030;BME280;34770;49.272;11.070;2023-11-21T03:41:41;97146.28;;;7.32;100.00
16030;BME280;34770;49.272;11.070;2023-11-21T03:44:07;97140.97;;;7.21;99.87
16030;BME280;34770;49.272;11.070;2023-11-21T03:46:32;97146.91;;;7.25;99.90
16030;BME280;34770;49.272;11.070;2023-11-21T03:48:57;97100.94;;;6.96;99.65
16030;BME280;34770;49.272;11.070;2023-11-21T03:51:23;97136.09;;;7.15;99.75
16030;BME280;34770;49.272;11.070;2023-11-21T03:53:48;97135.84;;;7.18;99.79
16030;BME280;34770;49.272;11.070;2023-11-21T03:56:14;97132.19;;;7.08;99.40
16030;BME280;34770;49.272;11.070;2023-11-21T03:58:39;97118.94;;;6.95;99.99
16030;BME280;34770;49.272;11.070;2023-11-21T04:01:05;97138.25;;;7.00;100.00
16030;BME280;34770;49.272;11.070;2023-11-21T04:03:30;97123.59;;;6.93;100.00
16030;BME280;34770;49.272;11.070;2023-11-21T04:05:56;97132.94;;;6.89;100.00
16030;BME280;34770;49.272;11.070;2023-11-21T04:08:21;97126.03;;;6.76;100.00
16030;BME280;34770;49.272;11.070;2023-11-21T04:10:46;97129.81;;;6.73;100.00
16030;BME280;34770;49.272;11.070;2023-11-21T04:13:12;97145.44;;;6.79;100.00
16030;BME280;34770;49.272;11.070;2023-11-21T04:15:37;97134.84;;;6.67;100.00
16030;BME280;34770;49.272;11.070;2023-11-21T04:18:02;97114.75;;;6.50;100.00
16030;BME280;34770;49.272;11.070;2023-11-21T04:20:28;97150.50;;;6.73;100.00
16030;BME280;34770;49.272;11.070;2023-11-21T04:22:53;97122.41;;;6.55;100.00
16030;BME280;34770;49.272;11.070;2023-11-21T04:25:19;97134.50;;;6.60;100.00
16030;BME280;34770;49.272;11.070;2023-11-21T04:27:45;97115.59;;;6.51;100.00
16030;BME280;34770;49.272;11.070;2023-11-21T04:30:13;97106.06;;;6.47;100.00
16030;BME280;34770;49.272;11.070;2023-11-21T04:32:39;97095.19;;;6.48;100.00
16030;BME280;34770;49.272;11.070;2023-11-21T04:35:05;97135.78;;;6.77;100.00
16030;BME280;34770;49.272;11.070;2023-11-21T04:37:30;97121.25;;;6.68;100.00
16030;BME280;34770;49.272;11.070;2023-11-21T04:39:55;97152.75;;;6.88;100.00
16030;BME280;34770;49.272;11.070;2023-11-21T04:42:21;97129.94;;;6.72;100.00
16030;BME280;34770;49.272;11.070;2023-11-21T04:44:47;97135.72;;;6.67;100.00
16030;BME280;34770;49.272;11.070;2023-11-21T04:47:12;97119.94;;;6.63;100.00
16030;BME280;34770;49.272;11.070;2023-11-21T04:49:37;97162.53;;;6.89;100.00
16030;BME280;34770;49.272;11.070;2023-11-21T04:52:03;97158.38;;;6.85;100.00
16030;BME280;34770;49.272;11.070;2023-11-21T04:54:30;97105.41;;;6.54;100.00
16030;BME280;34770;49.272;11.070;2023-11-21T04:56:56;97109.81;;;6.55;100.00
16030;BME280;34770;49.272;11.070;2023-11-21T04:59:21;97117.94;;;6.76;100.00
16030;BME280;34770;49.272;11.070;2023-11-21T05:01:50;97104.38;;;6.66;100.00
16030;BME280;34770;49.272;11.070;2023-11-21T05:04:15;97115.72;;;6.81;100.00
16030;BME280;34770;49.272;11.070;2023-11-21T05:06:41;97101.75;;;6.55;100.00
16030;BME280;34770;49.272;11.070;2023-11-21T05:09:06;97120.78;;;6.43;100.00
16030;BME280;34770;49.272;11.070;2023-11-21T05:11:36;97144.09;;;6.53;100.00
16030;BME280;34770;49.272;11.070;2023-11-21T05:14:02;97179.03;;;6.64;100.00
16030;BME280;34770;49.272;11.070;2023-11-21T05:16:29;97132.91;;;6.37;100.00
16030;BME280;34770;49.272;11.070;2023-11-21T05:18:54;97135.31;;;6.40;100.00
16030;BME280;34770;49.272;11.070;2023-11-21T05:21:25;97174.63;;;6.63;100.00
16030;BME280;34770;49.272;11.070;2023-11-21T05:23:51;97100.75;;;6.24;100.00
16030;BME280;34770;49.272;11.070;2023-11-21T05:26:16;97145.41;;;6.59;100.00
16030;BME280;34770;49.272;11.070;2023-11-21T05:28:41;97156.75;;;6.73;100.00
16030;BME280;34770;49.272;11.070;2023-11-21T05:31:07;97170.06;;;6.75;100.00
16030;BME280;34770;49.272;11.070;2023-11-21T05:33:32;97113.41;;;6.45;100.00
16030;BME280;34770;49.272;11.070;2023-11-21T05:35:58;97166.72;;;6.82;100.00
16030;BME280;34770;49.272;11.070;2023-11-21T05:38:23;97165.03;;;6.81;100.00
16030;BME280;34770;49.272;11.070;2023-11-21T05:40:49;97162.09;;;6.84;100.00
16030;BME280;34770;49.272;11.070;2023-11-21T05:43:15;97170.97;;;6.85;100.00
16030;BME280;34770;49.272;11.070;2023-11-21T05:45:40;97150.09;;;6.77;100.00
16030;BME280;34770;49.272;11.070;2023-11-21T05:48:06;97146.94;;;6.72;100.00
16030;BME280;34770;49.272;11.070;2023-11-21T05:50:31;97175.34;;;6.97;100.00
16030;BME280;34770;49.272;11.070;2023-11-21T05:52:57;97174.06;;;6.80;100.00
16030;BME280;34770;49.272;11.070;2023-11-21T05:55:25;97137.09;;;6.62;100.00
16030;BME280;34770;49.272;11.070;2023-11-21T05:57:51;97136.44;;;6.69;100.00
16030;BME280;34770;49.272;11.070;2023-11-21T06:00:16;97142.63;;;6.81;100.00
16030;BME280;34770;49.272;11.070;2023-11-21T06:02:53;97144.59;;;6.79;100.00
16030;BME280;34770;49.272;11.070;2023-11-21T06:05:20;97193.44;;;7.06;100.00
16030;BME280;34770;49.272;11.070;2023-11-21T06:07:49;97202.38;;;7.07;100.00
16030;BME280;34770;49.272;11.070;2023-11-21T06:10:14;97160.50;;;6.82;100.00
16030;BME280;34770;49.272;11.070;2023-11-21T06:12:40;97200.31;;;6.99;100.00
16030;BME280;34770;49.272;11.070;2023-11-21T06:15:08;97163.66;;;6.87;100.00
16030;BME280;34770;49.272;11.070;2023-11-21T06:17:35;97212.38;;;7.16;100.00
16030;BME280;34770;49.272;11.070;2023-11-21T06:20:05;97179.41;;;6.91;100.00
16030;BME280;34770;49.272;11.070;2023-11-21T06:22:38;97170.22;;;6.94;100.00
16030;BME280;34770;49.272;11.070;2023-11-21T06:25:04;97214.66;;;7.20;100.00
16030;BME280;34770;49.272;11.070;2023-11-21T06:27:41;97207.75;;;7.07;100.00
16030;BME280;34770;49.272;11.070;2023-11-21T06:30:07;97208.06;;;7.13;100.00
16030;BME280;34770;49.272;11.070;2023-11-21T06:32:35;97175.59;;;6.94;100.00
16030;BME280;34770;49.272;11.070;2023-11-21T06:35:01;97198.81;;;7.06;100.00
16030;BME280;34770;49.272;11.070;2023-11-21T06:37:27;97222.03;;;7.18;100.00
16030;BME280;34770;49.272;11.070;2023-11-21T06:39:53;97184.53;;;6.94;100.00
16030;BME280;34770;49.272;11.070;2023-11-21T06:42:19;97220.72;;;7.13;100.00
16030;BME280;34770;49.272;11.070;2023-11-21T06:44:45;97185.91;;;6.89;100.00
16030;BME280;34770;49.272;11.070;2023-11-21T06:47:10;97213.66;;;7.00;100.00
16030;BME280;34770;49.272;11.070;2023-11-21T06:49:36;97176.69;;;6.71;100.00
16030;BME280;34770;49.272;11.070;2023-11-21T06:52:01;97199.78;;;6.84;99.77
16030;BME280;34770;49.272;11.070;2023-11-21T06:54:28;97226.66;;;6.95;100.00
16030;BME280;34770;49.272;11.070;2023-11-21T06:56:54;97212.84;;;6.89;100.00
16030;BME280;34770;49.272;11.070;2023-11-21T06:59:19;97218.00;;;6.81;99.88
16030;BME280;34770;49.272;11.070;2023-11-21T07:01:45;97191.50;;;6.65;99.70
16030;BME280;34770;49.272;11.070;2023-11-21T07:04:10;97244.66;;;6.95;99.94
16030;BME280;34770;49.272;11.070;2023-11-21T07:06:35;97207.03;;;6.73;100.00
16030;BME280;34770;49.272;11.070;2023-11-21T07:09:01;97253.94;;;6.91;100.00
16030;BME280;34770;49.272;11.070;2023-11-21T07:11:27;97230.28;;;6.63;100.00
16030;BME280;34770;49.272;11.070;2023-11-21T07:13:52;97252.41;;;6.77;100.00
16030;BME280;34770;49.272;11.070;2023-11-21T07:16:18;97261.44;;;6.87;100.00
16030;BME280;34770;49.272;11.070;2023-11-21T07:18:44;97231.50;;;6.70;100.00
16030;BME280;34770;49.272;11.070;2023-11-21T07:21:10;97224.41;;;6.69;100.00
16030;BME280;34770;49.272;11.070;2023-11-21T07:23:37;97272.75;;;7.02;100.00
16030;BME280;34770;49.272;11.070;2023-11-21T07:26:03;97211.81;;;6.69;100.00
16030;BME280;34770;49.272;11.070;2023-11-21T07:28:29;97226.56;;;6.86;100.00
16030;BME280;34770;49.272;11.070;2023-11-21T07:30:55;97256.50;;;7.04;100.00
16030;BME280;34770;49.272;11.070;2023-11-21T07:33:20;97295.09;;;7.25;100.00
16030;BME280;34770;49.272;11.070;2023-11-21T07:35:46;97256.25;;;7.07;100.00
16030;BME280;34770;49.272;11.070;2023-11-21T07:38:12;97274.78;;;7.21;100.00
16030;BME280;34770;49.272;11.070;2023-11-21T07:40:38;97274.59;;;7.33;100.00
16030;BME280;34770;49.272;11.070;2023-11-21T07:43:03;97279.13;;;7.33;100.00
16030;BME280;34770;49.272;11.070;2023-11-21T07:45:29;97288.53;;;7.38;100.00
16030;BME280;34770;49.272;11.070;2023-11-21T07:47:54;97281.31;;;7.39;100.00
16030;BME280;34770;49.272;11.070;2023-11-21T07:50:21;97271.44;;;7.28;100.00
16030;BME280;34770;49.272;11.070;2023-11-21T07:52:48;97263.50;;;7.27;100.00
16030;BME280;34770;49.272;11.070;2023-11-21T07:55:14;97294.44;;;7.43;100.00
16030;BME280;34770;49.272;11.070;2023-11-21T07:57:40;97264.09;;;7.30;100.00
16030;BME280;34770;49.272;11.070;2023-11-21T08:00:06;97284.88;;;7.39;100.00
16030;BME280;34770;49.272;11.070;2023-11-21T08:02:34;97305.16;;;7.54;100.00
16030;BME280;34770;49.272;11.070;2023-11-21T08:05:00;97311.06;;;7.48;100.00
16030;BME280;34770;49.272;11.070;2023-11-21T08:07:25;97279.94;;;7.44;100.00
16030;BME280;34770;49.272;11.070;2023-11-21T08:09:51;97313.91;;;7.68;100.00
16030;BME280;34770;49.272;11.070;2023-11-21T08:12:17;97312.41;;;7.75;100.00
16030;BME280;34770;49.272;11.070;2023-11-21T08:14:43;97289.38;;;7.71;100.00
16030;BME280;34770;49.272;11.070;2023-11-21T08:17:09;97270.81;;;7.56;100.00
16030;BME280;34770;49.272;11.070;2023-11-21T08:19:35;97277.13;;;7.46;100.00
16030;BME280;34770;49.272;11.070;2023-11-21T08:22:02;97315.88;;;7.66;100.00
16030;BME280;34770;49.272;11.070;2023-11-21T08:24:28;97278.78;;;7.58;100.00
16030;BME280;34770;49.272;11.070;2023-11-21T08:26:53;97257.16;;;7.48;99.85
16030;BME280;34770;49.272;11.070;2023-11-21T08:29:19;97264.50;;;7.67;99.69
16030;BME280;34770;49.272;11.070;2023-11-21T08:31:44;97318.50;;;7.97;99.30
16030;BME280;34770;49.272;11.070;2023-11-21T08:34:13;97304.38;;;7.84;97.38
16030;BME280;34770;49.272;11.070;2023-11-21T08:36:43;97265.22;;;7.69;98.01
16030;BME280;34770;49.272;11.070;2023-11-21T08:39:08;97313.84;;;7.79;97.57
16030;BME280;34770;49.272;11.070;2023-11-21T08:41:34;97326.41;;;7.69;98.93
16030;BME280;34770;49.272;11.070;2023-11-21T08:44:02;97315.81;;;7.77;98.97
16030;BME280;34770;49.272;11.070;2023-11-21T08:46:27;97310.16;;;7.80;98.85
16030;BME280;34770;49.272;11.070;2023-11-21T08:48:53;97275.91;;;7.71;99.26
16030;BME280;34770;49.272;11.070;2023-11-21T08:51:18;97312.59;;;7.83;98.53
16030;BME280;34770;49.272;11.070;2023-11-21T08:53:43;97327.59;;;7.96;98.67
16030;BME280;34770;49.272;11.070;2023-11-21T08:56:12;97320.34;;;7.76;99.06
16030;BME280;34770;49.272;11.070;2023-11-21T08:58:39;97309.75;;;7.84;98.85
16030;BME280;34770;49.272;11.070;2023-11-21T09:01:05;97307.53;;;7.89;98.76
16030;BME280;34770;49.272;11.070;2023-11-21T09:03:32;97330.34;;;8.06;98.05
16030;BME280;34770;49.272;11.070;2023-11-21T09:05:59;97345.66;;;8.26;98.44
16030;BME280;34770;49.272;11.070;2023-11-21T09:08:25;97339.81;;;8.21;96.09
16030;BME280;34770;49.272;11.070;2023-11-21T09:10:50;97320.88;;;8.11;95.01
16030;BME280;34770;49.272;11.070;2023-11-21T09:13:17;97326.47;;;7.99;95.42
16030;BME280;34770;49.272;11.070;2023-11-21T09:15:43;97315.16;;;8.05;95.50
16030;BME280;34770;49.272;11.070;2023-11-21T09:18:14;97324.69;;;8.09;94.87
16030;BME280;34770;49.272;11.070;2023-11-21T09:20:41;97339.09;;;8.19;94.95
16030;BME280;34770;49.272;11.070;2023-11-21T09:23:06;97356.56;;;8.36;94.41
16030;BME280;34770;49.272;11.070;2023-11-21T09:25:32;97368.66;;;8.41;94.18
16030;BME280;34770;49.272;11.070;2023-11-21T09:27:58;97359.38;;;8.34;94.49
16030;BME280;34770;49.272;11.070;2023-11-21T09:30:23;97378.19;;;8.45;94.55
16030;BME280;34770;49.272;11.070;2023-11-21T09:32:50;97362.81;;;8.36;94.36
16030;BME280;34770;49.272;11.070;2023-11-21T09:35:15;97376.22;;;8.27;97.06
16030;BME280;34770;49.272;11.070;2023-11-21T09:37:43;97366.63;;;8.34;96.66
16030;BME280;34770;49.272;11.070;2023-11-21T09:40:11;97385.38;;;8.56;96.72
16030;BME280;34770;49.272;11.070;2023-11-21T09:42:40;97379.31;;;8.63;97.27
16030;BME280;34770;49.272;11.070;2023-11-21T09:45:36;97375.91;;;8.61;98.13
16030;BME280;34770;49.272;11.070;2023-11-21T09:48:03;97367.19;;;8.58;97.54
16030;BME280;34770;49.272;11.070;2023-11-21T09:50:32;97367.63;;;8.63;97.26
16030;BME280;34770;49.272;11.070;2023-11-21T09:53:03;97384.81;;;8.62;96.15
16030;BME280;34770;49.272;11.070;2023-11-21T09:55:34;97383.50;;;8.77;95.49
16030;BME280;34770;49.272;11.070;2023-11-21T09:58:04;97368.97;;;8.48;93.91
16030;BME280;34770;49.272;11.070;2023-11-21T10:00:33;97368.72;;;8.51;96.39
16030;BME280;34770;49.272;11.070;2023-11-21T10:02:59;97376.44;;;8.65;96.31
16030;BME280;34770;49.272;11.070;2023-11-21T10:05:25;97371.66;;;8.68;95.64
16030;BME280;34770;49.272;11.070;2023-11-21T10:07:50;97371.00;;;8.86;95.89
16030;BME280;34770;49.272;11.070;2023-11-21T10:10:18;97363.78;;;8.86;95.89
16030;BME280;34770;49.272;11.070;2023-11-21T10:12:49;97381.19;;;8.72;94.32
16030;BME280;34770;49.272;11.070;2023-11-21T10:15:23;97372.31;;;8.91;94.82
16030;BME280;34770;49.272;11.070;2023-11-21T10:17:53;97367.34;;;8.96;94.83
16030;BME280;34770;49.272;11.070;2023-11-21T10:20:20;97372.63;;;8.98;95.41
16030;BME280;34770;49.272;11.070;2023-11-21T10:22:46;97367.50;;;9.04;95.89
16030;BME280;34770;49.272;11.070;2023-11-21T10:25:12;97369.66;;;9.10;95.57
16030;BME280;34770;49.272;11.070;2023-11-21T10:27:40;97347.72;;;8.94;95.21
16030;BME280;34770;49.272;11.070;2023-11-21T10:30:07;97374.97;;;9.12;94.90
16030;BME280;34770;49.272;11.070;2023-11-21T10:32:43;97353.88;;;9.15;94.64
16030;BME280;34770;49.272;11.070;2023-11-21T10:35:09;97369.44;;;9.23;94.49
16030;BME280;34770;49.272;11.070;2023-11-21T10:37:40;97371.94;;;9.05;93.80
16030;BME280;34770;49.272;11.070;2023-11-21T10:40:07;97371.13;;;9.14;94.27
16030;BME280;34770;49.272;11.070;2023-11-21T10:42:33;97365.41;;;9.08;94.24
16030;BME280;34770;49.272;11.070;2023-11-21T10:44:58;97368.88;;;9.29;93.41
16030;BME280;34770;49.272;11.070;2023-11-21T10:47:25;97340.50;;;9.04;93.44
16030;BME280;34770;49.272;11.070;2023-11-21T10:49:51;97369.16;;;9.36;93.15
16030;BME280;34770;49.272;11.070;2023-11-21T10:52:19;97367.06;;;9.49;93.31
16030;BME280;34770;49.272;11.070;2023-11-21T10:54:46;97382.72;;;9.55;91.91
16030;BME280;34770;49.272;11.070;2023-11-21T10:57:16;97377.19;;;9.66;91.58
16030;BME280;34770;49.272;11.070;2023-11-21T10:59:47;97375.19;;;9.58;91.67
16030;BME280;34770;49.272;11.070;2023-11-21T11:02:24;97379.66;;;9.19;92.40
16030;BME280;34770;49.272;11.070;2023-11-21T11:04:54;97375.44;;;9.36;91.91
16030;BME280;34770;49.272;11.070;2023-11-21T11:07:21;97382.28;;;9.50;91.71
16030;BME280;34770;49.272;11.070;2023-11-21T11:09:50;97379.88;;;9.56;91.23
16030;BME280;34770;49.272;11.070;2023-11-21T11:12:17;97379.31;;;9.53;90.03
16030;BME280;34770;49.272;11.070;2023-11-21T11:14:44;97364.22;;;9.50;89.45
16030;BME280;34770;49.272;11.070;2023-11-21T11:17:10;97375.75;;;9.62;89.39
16030;BME280;34770;49.272;11.070;2023-11-21T11:19:36;97386.16;;;9.76;90.75
16030;BME280;34770;49.272;11.070;2023-11-21T11:25:07;97376.34;;;9.65;89.78
16030;BME280;34770;49.272;11.070;2023-11-21T11:38:33;97381.75;;;9.84;86.94
16030;BME280;34770;49.272;11.070;2023-11-21T11:41:05;97370.53;;;9.79;87.85
16030;BME280;34770;49.272;11.070;2023-11-21T11:43:31;97380.06;;;9.93;87.92
16030;BME280;34770;49.272;11.070;2023-11-21T11:46:10;97375.34;;;9.85;89.39
16030;BME280;34770;49.272;11.070;2023-11-21T11:48:39;97381.75;;;9.94;88.44
16030;BME280;34770;49.272;11.070;2023-11-21T11:51:12;97374.66;;;9.93;88.22
16030;BME280;34770;49.272;11.070;2023-11-21T11:53:46;97356.41;;;9.85;87.38
16030;BME280;34770;49.272;11.070;2023-11-21T11:56:29;97379.59;;;9.88;88.00
16030;BME280;34770;49.272;11.070;2023-11-21T11:58:57;97368.78;;;9.98;88.80
16030;BME280;34770;49.272;11.070;2023-11-21T12:01:25;97377.78;;;10.17;87.98
16030;BME280;34770;49.272;11.070;2023-11-21T12:06:51;97383.16;;;9.69;88.36
16030;BME280;34770;49.272;11.070;2023-11-21T12:09:23;97367.66;;;9.62;88.38
16030;BME280;34770;49.272;11.070;2023-11-21T12:11:49;97387.31;;;9.83;88.40
16030;BME280;34770;49.272;11.070;2023-11-21T12:14:15;97388.72;;;9.68;87.14
16030;BME280;34770;49.272;11.070;2023-11-21T12:16:42;97399.00;;;9.74;87.93
16030;BME280;34770;49.272;11.070;2023-11-21T12:19:09;97390.81;;;9.55;88.73
16030;BME280;34770;49.272;11.070;2023-11-21T12:21:36;97400.06;;;9.52;89.13
16030;BME280;34770;49.272;11.070;2023-11-21T12:24:01;97388.25;;;9.44;88.79
16030;BME280;34770;49.272;11.070;2023-11-21T12:26:27;97382.97;;;9.32;89.16
16030;BME280;34770;49.272;11.070;2023-11-21T12:28:53;97393.66;;;9.34;89.90
16030;BME280;34770;49.272;11.070;2023-11-21T12:31:21;97392.34;;;9.28;89.48
16030;BME280;34770;49.272;11.070;2023-11-21T12:33:46;97396.03;;;9.27;89.89
16030;BME280;34770;49.272;11.070;2023-11-21T12:36:12;97396.47;;;9.23;90.13
16030;BME280;34770;49.272;11.070;2023-11-21T12:38:38;97390.31;;;9.11;91.01
16030;BME280;34770;49.272;11.070;2023-11-21T12:41:03;97405.41;;;9.23;91.59
16030;BME280;34770;49.272;11.070;2023-11-21T12:43:30;97417.34;;;9.11;91.35
16030;BME280;34770;49.272;11.070;2023-11-21T12:46:06;97405.84;;;9.19;92.02
16030;BME280;34770;49.272;11.070;2023-11-21T12:48:32;97401.28;;;9.19;92.21
16030;BME280;34770;49.272;11.070;2023-11-21T12:50:57;97405.88;;;9.28;92.90
16030;BME280;34770;49.272;11.070;2023-11-21T12:53:25;97409.72;;;9.36;93.13
16030;BME280;34770;49.272;11.070;2023-11-21T12:55:51;97416.31;;;9.43;93.31
16030;BME280;34770;49.272;11.070;2023-11-21T12:58:17;97418.72;;;9.46;92.20
16030;BME280;34770;49.272;11.070;2023-11-21T13:00:46;97413.59;;;9.43;91.85
16030;BME280;34770;49.272;11.070;2023-11-21T13:03:13;97419.81;;;9.33;92.53
16030;BME280;34770;49.272;11.070;2023-11-21T13:05:42;97406.09;;;9.16;91.39
16030;BME280;34770;49.272;11.070;2023-11-21T13:08:11;97425.66;;;9.29;92.09
16030;BME280;34770;49.272;11.070;2023-11-21T13:10:40;97431.66;;;9.42;92.37